sensor_id;sensor_type;location;lat;lon;timestamp;P1;durP1;ratioP1;P2;durP2;ratioP2
3849;SDS011;1940;51.052;13.678;2023-02-28T00:00:47;9.60;;;5.73;;
3849;SDS011;1940;51.052;13.678;2023-02-28T00:03:12;8.40;;;5.27;;
3849;SDS011;1940;51.052;13.678;2023-02-28T00:05:38;16.33;;;5.93;;
3849;SDS011;1940;51.052;13.678;2023-02-28T00:08:04;9.53;;;5.17;;
3849;SDS011;1940;51.052;13.678;2023-02-28T00:10:30;9.50;;;4.70;;
3849;SDS011;1940;51.052;13.678;2023-02-28T00:13:00;9.80;;;5.30;;
3849;SDS011;1940;51.052;13.678;2023-02-28T00:15:28;7.70;;;4.50;;
3849;SDS011;1940;51.052;13.678;2023-02-28T00:17:53;9.53;;;5.00;;
3849;SDS011;1940;51.052;13.678;2023-02-28T00:20:19;8.57;;;5.30;;
3849;SDS011;1940;51.052;13.678;2023-02-28T00:22:46;8.70;;;4.70;;
3849;SDS011;1940;51.052;13.678;2023-02-28T00:25:15;7.10;;;4.47;;
3849;SDS011;1940;51.052;13.678;2023-02-28T00:27:43;7.07;;;4.07;;
3849;SDS011;1940;51.052;13.678;2023-02-28T00:30:10;7.93;;;4.13;;
3849;SDS011;1940;51.052;13.678;2023-02-28T00:32:37;9.30;;;5.03;;
3849;SDS011;1940;51.052;13.678;2023-02-28T00:35:03;7.07;;;4.10;;
3849;SDS011;1940;51.052;13.678;2023-02-28T00:37:29;6.83;;;4.13;;
3849;SDS011;1940;51.052;13.678;2023-02-28T00:39:55;8.17;;;4.50;;
3849;SDS011;1940;51.052;13.678;2023-02-28T00:42:21;5.77;;;3.87;;
3849;SDS011;1940;51.052;13.678;2023-02-28T00:44:46;8.63;;;4.40;;
3849;SDS011;1940;51.052;13.678;2023-02-28T00:47:12;6.77;;;4.30;;
3849;SDS011;1940;51.052;13.678;2023-02-28T00:49:37;5.93;;;3.90;;
3849;SDS011;1940;51.052;13.678;2023-02-28T00:52:03;8.80;;;4.13;;
3849;SDS011;1940;51.052;13.678;2023-02-28T00:54:28;7.37;;;4.30;;
3849;SDS011;1940;51.052;13.678;2023-02-28T00:56:54;8.43;;;5.10;;
3849;SDS011;1940;51.052;13.678;2023-02-28T00:59:19;11.93;;;4.77;;
3849;SDS011;1940;51.052;13.678;2023-02-28T01:01:45;6.97;;;4.53;;
3849;SDS011;1940;51.052;13.678;2023-02-28T01:04:11;6.30;;;4.00;;
3849;SDS011;1940;51.052;13.678;2023-02-28T01:06:37;6.60;;;3.47;;
3849;SDS011;1940;51.052;13.678;2023-02-28T01:09:03;6.47;;;4.27;;
3849;SDS011;1940;51.052;13.678;2023-02-28T01:11:30;7.10;;;4.50;;
3849;SDS011;1940;51.052;13.678;2023-02-28T01:13:57;6.03;;;4.03;;
3849;SDS011;1940;51.052;13.678;2023-02-28T01:16:22;9.67;;;4.63;;
3849;SDS011;1940;51.052;13.678;2023-02-28T01:18:48;6.40;;;3.50;;
3849;SDS011;1940;51.052;13.678;2023-02-28T01:21:15;7.17;;;4.60;;
3849;SDS011;1940;51.052;13.678;2023-02-28T01:23:41;5.80;;;3.60;;
3849;SDS011;1940;51.052;13.678;2023-02-28T01:26:09;6.87;;;3.77;;
3849;SDS011;1940;51.052;13.678;2023-02-28T01:28:37;5.73;;;3.33;;
3849;SDS011;1940;51.052;13.678;2023-02-28T01:31:02;7.10;;;4.03;;
3849;SDS011;1940;51.052;13.678;2023-02-28T01:33:28;5.60;;;3.70;;
3849;SDS011;1940;51.052;13.678;2023-02-28T01:35:58;7.83;;;4.20;;
3849;SDS011;1940;51.052;13.678;2023-02-28T01:38:30;6.07;;;3.80;;
3849;SDS011;1940;51.052;13.678;2023-02-28T01:40:56;7.00;;;3.83;;
3849;SDS011;1940;51.052;13.678;2023-02-28T01:43:23;6.87;;;4.50;;
3849;SDS011;1940;51.052;13.678;2023-02-28T01:45:51;6.20;;;4.10;;
3849;SDS011;1940;51.052;13.678;2023-02-28T01:48:18;6.47;;;3.80;;
3849;SDS011;1940;51.052;13.678;2023-02-28T01:50:45;6.23;;;3.80;;
3849;SDS011;1940;51.052;13.678;2023-02-28T01:53:14;7.70;;;4.80;;
3849;SDS011;1940;51.052;13.678;2023-02-28T01:55:44;7.80;;;4.33;;
3849;SDS011;1940;51.052;13.678;2023-02-28T01:58:13;6.77;;;5.03;;
3849;SDS011;1940;51.052;13.678;2023-02-28T02:00:39;9.20;;;4.73;;
3849;SDS011;1940;51.052;13.678;2023-02-28T02:03:08;7.50;;;3.80;;
3849;SDS011;1940;51.052;13.678;2023-02-28T02:05:36;6.90;;;4.10;;
3849;SDS011;1940;51.052;13.678;2023-02-28T02:08:04;9.50;;;4.50;;
3849;SDS011;1940;51.052;13.678;2023-02-28T02:10:34;6.73;;;4.73;;
3849;SDS011;1940;51.052;13.678;2023-02-28T02:13:07;6.50;;;4.10;;
3849;SDS011;1940;51.052;13.678;2023-02-28T02:16:06;6.90;;;4.40;;
3849;SDS011;1940;51.052;13.678;2023-02-28T02:18:49;9.03;;;4.40;;
3849;SDS011;1940;51.052;13.678;2023-02-28T02:21:27;7.53;;;4.43;;
3849;SDS011;1940;51.052;13.678;2023-02-28T02:30:22;8.93;;;3.77;;
3849;SDS011;1940;51.052;13.678;2023-02-28T02:38:46;9.40;;;5.20;;
3849;SDS011;1940;51.052;13.678;2023-02-28T02:43:48;12.97;;;5.33;;
3849;SDS011;1940;51.052;13.678;2023-02-28T02:46:21;15.60;;;5.30;;
3849;SDS011;1940;51.052;13.678;2023-02-28T02:48:54;9.50;;;4.70;;
3849;SDS011;1940;51.052;13.678;2023-02-28T02:51:21;7.30;;;4.50;;
3849;SDS011;1940;51.052;13.678;2023-02-28T02:53:50;8.87;;;5.30;;
3849;SDS011;1940;51.052;13.678;2023-02-28T02:56:23;7.30;;;5.33;;
3849;SDS011;1940;51.052;13.678;2023-02-28T02:58:52;9.43;;;6.07;;
3849;SDS011;1940;51.052;13.678;2023-02-28T03:01:22;10.80;;;6.00;;
3849;SDS011;1940;51.052;13.678;2023-02-28T03:03:54;13.17;;;5.63;;
3849;SDS011;1940;51.052;13.678;2023-02-28T03:06:29;11.40;;;5.73;;
3849;SDS011;1940;51.052;13.678;2023-02-28T03:08:54;9.37;;;5.80;;
3849;SDS011;1940;51.052;13.678;2023-02-28T03:11:20;12.33;;;5.63;;
3849;SDS011;1940;51.052;13.678;2023-02-28T03:19:30;9.80;;;5.73;;
3849;SDS011;1940;51.052;13.678;2023-02-28T03:22:12;8.10;;;5.27;;
3849;SDS011;1940;51.052;13.678;2023-02-28T03:25:12;10.80;;;5.60;;
3849;SDS011;1940;51.052;13.678;2023-02-28T03:27:55;13.77;;;6.20;;
3849;SDS011;1940;51.052;13.678;2023-02-28T03:30:32;10.87;;;5.73;;
3849;SDS011;1940;51.052;13.678;2023-02-28T03:33:08;9.60;;;5.90;;
3849;SDS011;1940;51.052;13.678;2023-02-28T03:35:55;7.27;;;5.33;;
3849;SDS011;1940;51.052;13.678;2023-02-28T03:41:02;7.90;;;5.13;;
3849;SDS011;1940;51.052;13.678;2023-02-28T03:43:38;8.70;;;5.40;;
3849;SDS011;1940;51.052;13.678;2023-02-28T03:46:08;10.83;;;6.00;;
3849;SDS011;1940;51.052;13.678;2023-02-28T03:48:38;9.20;;;5.57;;
3849;SDS011;1940;51.052;13.678;2023-02-28T03:51:08;12.10;;;6.40;;
3849;SDS011;1940;51.052;13.678;2023-02-28T03:53:47;11.20;;;6.17;;
3849;SDS011;1940;51.052;13.678;2023-02-28T03:56:18;10.40;;;5.97;;
3849;SDS011;1940;51.052;13.678;2023-02-28T03:59:10;7.27;;;5.00;;
3849;SDS011;1940;51.052;13.678;2023-02-28T04:01:41;15.43;;;6.20;;
3849;SDS011;1940;51.052;13.678;2023-02-28T04:04:09;9.93;;;5.63;;
3849;SDS011;1940;51.052;13.678;2023-02-28T04:06:36;10.70;;;6.00;;
3849;SDS011;1940;51.052;13.678;2023-02-28T04:09:02;9.97;;;5.87;;
3849;SDS011;1940;51.052;13.678;2023-02-28T04:11:36;12.20;;;6.77;;
3849;SDS011;1940;51.052;13.678;2023-02-28T04:14:10;12.67;;;6.03;;
3849;SDS011;1940;51.052;13.678;2023-02-28T04:16:37;10.27;;;6.07;;
3849;SDS011;1940;51.052;13.678;2023-02-28T04:19:05;11.40;;;5.93;;
3849;SDS011;1940;51.052;13.678;2023-02-28T04:21:32;12.00;;;6.20;;
3849;SDS011;1940;51.052;13.678;2023-02-28T04:24:09;12.93;;;6.93;;
3849;SDS011;1940;51.052;13.678;2023-02-28T04:26:39;9.80;;;5.50;;
3849;SDS011;1940;51.052;13.678;2023-02-28T04:29:08;8.73;;;5.40;;
3849;SDS011;1940;51.052;13.678;2023-02-28T04:31:34;10.03;;;5.93;;
3849;SDS011;1940;51.052;13.678;2023-02-28T04:34:00;12.97;;;6.50;;
3849;SDS011;1940;51.052;13.678;2023-02-28T04:36:26;12.30;;;6.23;;
3849;SDS011;1940;51.052;13.678;2023-02-28T04:38:52;13.43;;;7.30;;
3849;SDS011;1940;51.052;13.678;2023-02-28T04:41:17;14.70;;;7.20;;
3849;SDS011;1940;51.052;13.678;2023-02-28T04:43:43;10.53;;;6.53;;
3849;SDS011;1940;51.052;13.678;2023-02-28T04:46:08;11.37;;;6.30;;
3849;SDS011;1940;51.052;13.678;2023-02-28T04:48:35;14.67;;;7.97;;
3849;SDS011;1940;51.052;13.678;2023-02-28T04:51:02;16.30;;;8.33;;
3849;SDS011;1940;51.052;13.678;2023-02-28T04:53:29;16.97;;;7.97;;
3849;SDS011;1940;51.052;13.678;2023-02-28T04:55:55;11.73;;;7.10;;
3849;SDS011;1940;51.052;13.678;2023-02-28T04:58:22;17.80;;;7.63;;
3849;SDS011;1940;51.052;13.678;2023-02-28T05:00:48;13.30;;;7.00;;
3849;SDS011;1940;51.052;13.678;2023-02-28T05:03:14;11.97;;;7.30;;
3849;SDS011;1940;51.052;13.678;2023-02-28T05:05:40;15.67;;;7.70;;
3849;SDS011;1940;51.052;13.678;2023-02-28T05:08:05;16.53;;;7.00;;
3849;SDS011;1940;51.052;13.678;2023-02-28T05:10:31;13.50;;;6.87;;
3849;SDS011;1940;51.052;13.678;2023-02-28T05:12:56;10.33;;;5.90;;
3849;SDS011;1940;51.052;13.678;2023-02-28T05:15:23;10.90;;;6.80;;
3849;SDS011;1940;51.052;13.678;2023-02-28T05:17:49;10.33;;;5.43;;
3849;SDS011;1940;51.052;13.678;2023-02-28T05:20:15;11.10;;;6.27;;
3849;SDS011;1940;51.052;13.678;2023-02-28T05:22:41;9.97;;;6.40;;
3849;SDS011;1940;51.052;13.678;2023-02-28T05:25:11;13.27;;;7.47;;
3849;SDS011;1940;51.052;13.678;2023-02-28T05:27:40;13.37;;;6.37;;
3849;SDS011;1940;51.052;13.678;2023-02-28T05:30:06;12.47;;;6.70;;
3849;SDS011;1940;51.052;13.678;2023-02-28T05:32:35;12.50;;;6.83;;
3849;SDS011;1940;51.052;13.678;2023-02-28T05:35:01;16.90;;;6.33;;
3849;SDS011;1940;51.052;13.678;2023-02-28T05:37:27;13.07;;;6.57;;
3849;SDS011;1940;51.052;13.678;2023-02-28T05:39:52;9.90;;;5.80;;
3849;SDS011;1940;51.052;13.678;2023-02-28T05:42:18;13.90;;;7.03;;
3849;SDS011;1940;51.052;13.678;2023-02-28T05:44:43;13.20;;;6.90;;
3849;SDS011;1940;51.052;13.678;2023-02-28T05:47:09;14.00;;;6.57;;
3849;SDS011;1940;51.052;13.678;2023-02-28T05:49:34;15.23;;;7.33;;
3849;SDS011;1940;51.052;13.678;2023-02-28T05:52:00;12.60;;;6.47;;
3849;SDS011;1940;51.052;13.678;2023-02-28T05:54:25;13.07;;;6.40;;
3849;SDS011;1940;51.052;13.678;2023-02-28T05:56:51;13.13;;;6.97;;
3849;SDS011;1940;51.052;13.678;2023-02-28T05:59:16;11.23;;;6.53;;
3849;SDS011;1940;51.052;13.678;2023-02-28T06:01:42;12.53;;;7.70;;
3849;SDS011;1940;51.052;13.678;2023-02-28T06:04:17;13.60;;;6.57;;
3849;SDS011;1940;51.052;13.678;2023-02-28T06:06:47;11.13;;;6.63;;
3849;SDS011;1940;51.052;13.678;2023-02-28T06:09:13;13.40;;;7.07;;
3849;SDS011;1940;51.052;13.678;2023-02-28T06:11:39;12.37;;;6.70;;
3849;SDS011;1940;51.052;13.678;2023-02-28T06:14:05;16.73;;;7.20;;
3849;SDS011;1940;51.052;13.678;2023-02-28T06:16:32;11.83;;;6.70;;
3849;SDS011;1940;51.052;13.678;2023-02-28T06:19:00;14.73;;;8.03;;
3849;SDS011;1940;51.052;13.678;2023-02-28T06:21:27;14.90;;;7.97;;
3849;SDS011;1940;51.052;13.678;2023-02-28T06:23:53;11.70;;;7.33;;
3849;SDS011;1940;51.052;13.678;2023-02-28T06:26:19;12.00;;;7.37;;
3849;SDS011;1940;51.052;13.678;2023-02-28T06:28:45;17.60;;;7.77;;
3849;SDS011;1940;51.052;13.678;2023-02-28T06:31:12;13.60;;;7.30;;
3849;SDS011;1940;51.052;13.678;2023-02-28T06:33:39;15.93;;;7.80;;
3849;SDS011;1940;51.052;13.678;2023-02-28T06:36:05;15.90;;;8.00;;
3849;SDS011;1940;51.052;13.678;2023-02-28T06:38:32;22.83;;;9.43;;
3849;SDS011;1940;51.052;13.678;2023-02-28T06:40:58;13.10;;;7.23;;
3849;SDS011;1940;51.052;13.678;2023-02-28T06:43:27;12.80;;;7.57;;
3849;SDS011;1940;51.052;13.678;2023-02-28T06:45:57;12.10;;;7.00;;
3849;SDS011;1940;51.052;13.678;2023-02-28T06:48:25;14.07;;;8.50;;
3849;SDS011;1940;51.052;13.678;2023-02-28T06:50:51;18.80;;;7.77;;
3849;SDS011;1940;51.052;13.678;2023-02-28T06:53:17;13.80;;;7.90;;
3849;SDS011;1940;51.052;13.678;2023-02-28T06:55:43;13.17;;;7.63;;
3849;SDS011;1940;51.052;13.678;2023-02-28T06:58:08;12.90;;;7.50;;
3849;SDS011;1940;51.052;13.678;2023-02-28T07:00:42;16.47;;;8.30;;
3849;SDS011;1940;51.052;13.678;2023-02-28T07:03:09;15.93;;;8.00;;
3849;SDS011;1940;51.052;13.678;2023-02-28T07:05:36;14.13;;;7.67;;
3849;SDS011;1940;51.052;13.678;2023-02-28T07:08:02;15.23;;;7.97;;
3849;SDS011;1940;51.052;13.678;2023-02-28T07:10:29;15.17;;;8.50;;
3849;SDS011;1940;51.052;13.678;2023-02-28T07:12:55;12.87;;;7.73;;
3849;SDS011;1940;51.052;13.678;2023-02-28T07:15:20;14.40;;;7.57;;
3849;SDS011;1940;51.052;13.678;2023-02-28T07:17:46;17.20;;;8.60;;
3849;SDS011;1940;51.052;13.678;2023-02-28T07:20:11;16.33;;;8.53;;
3849;SDS011;1940;51.052;13.678;2023-02-28T07:22:37;15.67;;;8.37;;
3849;SDS011;1940;51.052;13.678;2023-02-28T07:25:03;14.57;;;7.93;;
3849;SDS011;1940;51.052;13.678;2023-02-28T07:27:29;16.60;;;8.80;;
3849;SDS011;1940;51.052;13.678;2023-02-28T07:29:55;16.10;;;7.63;;
3849;SDS011;1940;51.052;13.678;2023-02-28T07:32:20;19.93;;;7.83;;
3849;SDS011;1940;51.052;13.678;2023-02-28T07:34:46;14.37;;;8.27;;
3849;SDS011;1940;51.052;13.678;2023-02-28T07:37:11;14.53;;;7.63;;
3849;SDS011;1940;51.052;13.678;2023-02-28T07:39:37;16.00;;;7.73;;
3849;SDS011;1940;51.052;13.678;2023-02-28T07:42:06;13.53;;;7.63;;
3849;SDS011;1940;51.052;13.678;2023-02-28T07:44:34;15.27;;;7.53;;
3849;SDS011;1940;51.052;13.678;2023-02-28T07:47:00;13.27;;;7.87;;
3849;SDS011;1940;51.052;13.678;2023-02-28T07:49:25;13.93;;;7.43;;
3849;SDS011;1940;51.052;13.678;2023-02-28T07:51:51;13.63;;;7.77;;
3849;SDS011;1940;51.052;13.678;2023-02-28T07:54:16;14.70;;;7.70;;
3849;SDS011;1940;51.052;13.678;2023-02-28T07:56:42;12.90;;;7.37;;
3849;SDS011;1940;51.052;13.678;2023-02-28T07:59:07;13.97;;;8.30;;
3849;SDS011;1940;51.052;13.678;2023-02-28T08:01:34;13.80;;;8.30;;
3849;SDS011;1940;51.052;13.678;2023-02-28T08:03:59;14.97;;;8.27;;
3849;SDS011;1940;51.052;13.678;2023-02-28T08:06:25;15.30;;;8.00;;
3849;SDS011;1940;51.052;13.678;2023-02-28T08:08:52;14.93;;;8.73;;
3849;SDS011;1940;51.052;13.678;2023-02-28T08:11:18;15.97;;;7.87;;
3849;SDS011;1940;51.052;13.678;2023-02-28T08:13:44;13.57;;;8.67;;
3849;SDS011;1940;51.052;13.678;2023-02-28T08:16:10;11.97;;;7.57;;
3849;SDS011;1940;51.052;13.678;2023-02-28T08:18:37;20.83;;;8.37;;
3849;SDS011;1940;51.052;13.678;2023-02-28T08:21:09;17.77;;;7.90;;
3849;SDS011;1940;51.052;13.678;2023-02-28T08:23:35;15.67;;;7.60;;
3849;SDS011;1940;51.052;13.678;2023-02-28T08:26:01;12.63;;;7.60;;
3849;SDS011;1940;51.052;13.678;2023-02-28T08:28:27;13.50;;;7.97;;
3849;SDS011;1940;51.052;13.678;2023-02-28T08:30:53;14.50;;;8.60;;
3849;SDS011;1940;51.052;13.678;2023-02-28T08:33:19;16.17;;;7.80;;
3849;SDS011;1940;51.052;13.678;2023-02-28T08:35:44;14.80;;;8.23;;
3849;SDS011;1940;51.052;13.678;2023-02-28T08:38:10;20.30;;;8.70;;
3849;SDS011;1940;51.052;13.678;2023-02-28T08:40:35;15.20;;;8.93;;
3849;SDS011;1940;51.052;13.678;2023-02-28T08:43:01;16.73;;;8.17;;
3849;SDS011;1940;51.052;13.678;2023-02-28T08:45:26;14.97;;;8.50;;
3849;SDS011;1940;51.052;13.678;2023-02-28T08:47:53;17.40;;;8.20;;
3849;SDS011;1940;51.052;13.678;2023-02-28T08:50:20;14.83;;;8.00;;
3849;SDS011;1940;51.052;13.678;2023-02-28T08:52:47;16.20;;;8.40;;
3849;SDS011;1940;51.052;13.678;2023-02-28T08:55:12;13.70;;;8.23;;
3849;SDS011;1940;51.052;13.678;2023-02-28T08:57:38;15.30;;;8.37;;
3849;SDS011;1940;51.052;13.678;2023-02-28T09:00:03;13.77;;;7.97;;
3849;SDS011;1940;51.052;13.678;2023-02-28T09:02:30;16.80;;;8.43;;
3849;SDS011;1940;51.052;13.678;2023-02-28T09:04:56;16.23;;;8.27;;
3849;SDS011;1940;51.052;13.678;2023-02-28T09:07:22;18.40;;;8.90;;
3849;SDS011;1940;51.052;13.678;2023-02-28T09:09:49;23.87;;;8.97;;
3849;SDS011;1940;51.052;13.678;2023-02-28T09:12:24;15.43;;;7.97;;
3849;SDS011;1940;51.052;13.678;2023-02-28T09:14:51;19.23;;;8.23;;
3849;SDS011;1940;51.052;13.678;2023-02-28T09:17:17;21.83;;;8.73;;
3849;SDS011;1940;51.052;13.678;2023-02-28T09:19:43;13.93;;;7.80;;
3849;SDS011;1940;51.052;13.678;2023-02-28T09:22:09;16.37;;;7.57;;
3849;SDS011;1940;51.052;13.678;2023-02-28T09:24:36;12.30;;;6.93;;
3849;SDS011;1940;51.052;13.678;2023-02-28T09:27:03;14.20;;;6.37;;
3849;SDS011;1940;51.052;13.678;2023-02-28T09:29:29;11.37;;;7.03;;
3849;SDS011;1940;51.052;13.678;2023-02-28T09:31:55;12.70;;;6.20;;
3849;SDS011;1940;51.052;13.678;2023-02-28T09:34:23;11.30;;;6.30;;
3849;SDS011;1940;51.052;13.678;2023-02-28T09:36:49;9.63;;;6.10;;
3849;SDS011;1940;51.052;13.678;2023-02-28T09:39:19;12.17;;;6.47;;
3849;SDS011;1940;51.052;13.678;2023-02-28T09:41:47;10.50;;;6.17;;
3849;SDS011;1940;51.052;13.678;2023-02-28T09:44:26;10.97;;;6.40;;
3849;SDS011;1940;51.052;13.678;2023-02-28T09:47:02;10.63;;;6.37;;
3849;SDS011;1940;51.052;13.678;2023-02-28T09:49:49;10.03;;;6.70;;
3849;SDS011;1940;51.052;13.678;2023-02-28T09:52:18;13.90;;;7.13;;
3849;SDS011;1940;51.052;13.678;2023-02-28T09:54:48;11.73;;;6.87;;
3849;SDS011;1940;51.052;13.678;2023-02-28T10:00:02;10.87;;;6.53;;
3849;SDS011;1940;51.052;13.678;2023-02-28T10:05:33;11.70;;;6.33;;
3849;SDS011;1940;51.052;13.678;2023-02-28T10:08:19;7.90;;;5.63;;
3849;SDS011;1940;51.052;13.678;2023-02-28T10:10:53;14.70;;;6.17;;
3849;SDS011;1940;51.052;13.678;2023-02-28T10:14:04;16.83;;;6.00;;
3849;SDS011;1940;51.052;13.678;2023-02-28T10:21:49;10.57;;;5.87;;
3849;SDS011;1940;51.052;13.678;2023-02-28T10:24:34;14.23;;;6.60;;
3849;SDS011;1940;51.052;13.678;2023-02-28T10:27:37;9.17;;;5.80;;
3849;SDS011;1940;51.052;13.678;2023-02-28T10:29:57;12.90;;;7.00;;
3849;SDS011;1940;51.052;13.678;2023-02-28T10:32:26;11.33;;;7.07;;
3849;SDS011;1940;51.052;13.678;2023-02-28T10:35:00;10.40;;;6.10;;
3849;SDS011;1940;51.052;13.678;2023-02-28T10:37:26;10.40;;;7.20;;
3849;SDS011;1940;51.052;13.678;2023-02-28T10:39:53;10.73;;;6.77;;
3849;SDS011;1940;51.052;13.678;2023-02-28T10:42:21;13.23;;;6.40;;
3849;SDS011;1940;51.052;13.678;2023-02-28T10:45:15;11.63;;;6.60;;
3849;SDS011;1940;51.052;13.678;2023-02-28T10:47:49;12.20;;;6.80;;
3849;SDS011;1940;51.052;13.678;2023-02-28T10:53:24;14.73;;;7.63;;
3849;SDS011;1940;51.052;13.678;2023-02-28T10:58:28;12.90;;;6.83;;
3849;SDS011;1940;51.052;13.678;2023-02-28T11:01:16;9.40;;;6.40;;
3849;SDS011;1940;51.052;13.678;2023-02-28T11:03:59;11.50;;;7.00;;
3849;SDS011;1940;51.052;13.678;2023-02-28T11:06:26;14.40;;;7.13;;
3849;SDS011;1940;51.052;13.678;2023-02-28T11:09:04;13.03;;;7.30;;
3849;SDS011;1940;51.052;13.678;2023-02-28T11:11:44;11.50;;;7.63;;
3849;SDS011;1940;51.052;13.678;2023-02-28T11:14:31;11.77;;;7.70;;
3849;SDS011;1940;51.052;13.678;2023-02-28T11:17:02;12.33;;;7.40;;
3849;SDS011;1940;51.052;13.678;2023-02-28T11:19:40;13.17;;;7.40;;
3849;SDS011;1940;51.052;13.678;2023-02-28T11:22:10;11.73;;;7.30;;
3849;SDS011;1940;51.052;13.678;2023-02-28T11:24:42;10.53;;;7.10;;
3849;SDS011;1940;51.052;13.678;2023-02-28T11:29:54;12.87;;;7.60;;
3849;SDS011;1940;51.052;13.678;2023-02-28T11:32:20;13.00;;;7.20;;
3849;SDS011;1940;51.052;13.678;2023-02-28T11:37:28;11.20;;;6.90;;
3849;SDS011;1940;51.052;13.678;2023-02-28T11:39:55;14.30;;;7.43;;
3849;SDS011;1940;51.052;13.678;2023-02-28T11:42:28;15.03;;;7.77;;
3849;SDS011;1940;51.052;13.678;2023-02-28T11:47:43;13.00;;;7.63;;
3849;SDS011;1940;51.052;13.678;2023-02-28T11:50:40;14.50;;;7.63;;
3849;SDS011;1940;51.052;13.678;2023-02-28T11:56:38;16.93;;;8.53;;
3849;SDS011;1940;51.052;13.678;2023-02-28T12:14:28;11.40;;;6.40;;
3849;SDS011;1940;51.052;13.678;2023-02-28T12:19:59;10.20;;;6.53;;
3849;SDS011;1940;51.052;13.678;2023-02-28T12:22:31;11.53;;;7.30;;
3849;SDS011;1940;51.052;13.678;2023-02-28T12:25:35;10.67;;;6.57;;
3849;SDS011;1940;51.052;13.678;2023-02-28T12:28:27;12.43;;;6.73;;
3849;SDS011;1940;51.052;13.678;2023-02-28T12:30:58;12.77;;;7.80;;
3849;SDS011;1940;51.052;13.678;2023-02-28T12:33:32;17.70;;;9.10;;
3849;SDS011;1940;51.052;13.678;2023-02-28T12:36:03;13.17;;;7.90;;
3849;SDS011;1940;51.052;13.678;2023-02-28T12:38:36;14.20;;;8.50;;
3849;SDS011;1940;51.052;13.678;2023-02-28T12:41:10;12.80;;;7.90;;
3849;SDS011;1940;51.052;13.678;2023-02-28T12:43:48;15.10;;;7.67;;
3849;SDS011;1940;51.052;13.678;2023-02-28T12:46:23;13.47;;;7.73;;
3849;SDS011;1940;51.052;13.678;2023-02-28T12:48:56;13.90;;;8.07;;
3849;SDS011;1940;51.052;13.678;2023-02-28T12:51:24;16.47;;;7.97;;
3849;SDS011;1940;51.052;13.678;2023-02-28T12:59:40;14.47;;;7.77;;
3849;SDS011;1940;51.052;13.678;2023-02-28T13:05:49;19.33;;;8.03;;
3849;SDS011;1940;51.052;13.678;2023-02-28T13:16:56;14.97;;;7.80;;
3849;SDS011;1940;51.052;13.678;2023-02-28T13:19:23;17.87;;;8.17;;
3849;SDS011;1940;51.052;13.678;2023-02-28T13:21:51;17.17;;;7.80;;
3849;SDS011;1940;51.052;13.678;2023-02-28T13:24:36;16.70;;;7.20;;
3849;SDS011;1940;51.052;13.678;2023-02-28T13:27:17;11.60;;;7.30;;
3849;SDS011;1940;51.052;13.678;2023-02-28T13:29:49;12.27;;;7.07;;
3849;SDS011;1940;51.052;13.678;2023-02-28T13:32:19;13.17;;;7.20;;
3849;SDS011;1940;51.052;13.678;2023-02-28T13:35:12;16.87;;;7.63;;
3849;SDS011;1940;51.052;13.678;2023-02-28T13:37:36;12.90;;;7.63;;
3849;SDS011;1940;51.052;13.678;2023-02-28T13:47:43;16.23;;;7.70;;
3849;SDS011;1940;51.052;13.678;2023-02-28T13:52:45;13.70;;;7.80;;
3849;SDS011;1940;51.052;13.678;2023-02-28T13:55:32;17.60;;;8.10;;
3849;SDS011;1940;51.052;13.678;2023-02-28T14:03:42;18.50;;;8.80;;
3849;SDS011;1940;51.052;13.678;2023-02-28T14:09:16;17.70;;;8.40;;
3849;SDS011;1940;51.052;13.678;2023-02-28T14:17:57;15.37;;;7.57;;
3849;SDS011;1940;51.052;13.678;2023-02-28T14:20:26;15.57;;;8.37;;
3849;SDS011;1940;51.052;13.678;2023-02-28T14:25:33;12.90;;;8.17;;
3849;SDS011;1940;51.052;13.678;2023-02-28T14:28:13;13.33;;;7.80;;
3849;SDS011;1940;51.052;13.678;2023-02-28T14:36:19;16.70;;;8.10;;
3849;SDS011;1940;51.052;13.678;2023-02-28T14:39:07;19.87;;;8.63;;
3849;SDS011;1940;51.052;13.678;2023-02-28T14:41:42;19.83;;;8.60;;
3849;SDS011;1940;51.052;13.678;2023-02-28T14:46:45;18.83;;;9.20;;
3849;SDS011;1940;51.052;13.678;2023-02-28T14:49:16;15.83;;;8.43;;
3849;SDS011;1940;51.052;13.678;2023-02-28T14:51:44;16.13;;;8.50;;
3849;SDS011;1940;51.052;13.678;2023-02-28T14:54:12;16.70;;;8.63;;
3849;SDS011;1940;51.052;13.678;2023-02-28T14:56:40;15.50;;;8.87;;
3849;SDS011;1940;51.052;13.678;2023-02-28T14:59:18;16.00;;;8.63;;
3849;SDS011;1940;51.052;13.678;2023-02-28T15:04:39;17.80;;;9.10;;
3849;SDS011;1940;51.052;13.678;2023-02-28T15:07:07;15.33;;;7.83;;
3849;SDS011;1940;51.052;13.678;2023-02-28T15:09:33;13.67;;;8.40;;
3849;SDS011;1940;51.052;13.678;2023-02-28T15:11:59;16.20;;;8.27;;
3849;SDS011;1940;51.052;13.678;2023-02-28T15:14:24;16.67;;;8.43;;
3849;SDS011;1940;51.052;13.678;2023-02-28T15:16:55;17.10;;;8.20;;
3849;SDS011;1940;51.052;13.678;2023-02-28T15:19:28;19.07;;;8.90;;
3849;SDS011;1940;51.052;13.678;2023-02-28T15:22:07;17.57;;;8.70;;
3849;SDS011;1940;51.052;13.678;2023-02-28T15:24:37;19.33;;;9.27;;
3849;SDS011;1940;51.052;13.678;2023-02-28T15:27:07;16.90;;;8.30;;
3849;SDS011;1940;51.052;13.678;2023-02-28T15:29:47;16.70;;;8.50;;
3849;SDS011;1940;51.052;13.678;2023-02-28T15:32:32;18.23;;;8.37;;
3849;SDS011;1940;51.052;13.678;2023-02-28T15:35:17;17.77;;;7.37;;
3849;SDS011;1940;51.052;13.678;2023-02-28T15:37:54;14.53;;;8.17;;
3849;SDS011;1940;51.052;13.678;2023-02-28T15:43:13;17.97;;;7.80;;
3849;SDS011;1940;51.052;13.678;2023-02-28T15:45:49;15.73;;;9.20;;
3849;SDS011;1940;51.052;13.678;2023-02-28T15:48:20;15.30;;;8.20;;
3849;SDS011;1940;51.052;13.678;2023-02-28T15:50:49;19.93;;;8.87;;
3849;SDS011;1940;51.052;13.678;2023-02-28T15:53:18;13.80;;;8.10;;
3849;SDS011;1940;51.052;13.678;2023-02-28T15:55:52;18.20;;;8.83;;
3849;SDS011;1940;51.052;13.678;2023-02-28T15:58:23;18.07;;;9.27;;
3849;SDS011;1940;51.052;13.678;2023-02-28T16:03:49;19.00;;;8.47;;
3849;SDS011;1940;51.052;13.678;2023-02-28T16:08:55;18.17;;;8.30;;
3849;SDS011;1940;51.052;13.678;2023-02-28T16:11:21;18.83;;;8.97;;
3849;SDS011;1940;51.052;13.678;2023-02-28T16:13:47;15.50;;;8.80;;
3849;SDS011;1940;51.052;13.678;2023-02-28T16:16:20;18.93;;;8.80;;
3849;SDS011;1940;51.052;13.678;2023-02-28T16:18:48;23.80;;;8.47;;
3849;SDS011;1940;51.052;13.678;2023-02-28T16:21:15;19.00;;;9.00;;
3849;SDS011;1940;51.052;13.678;2023-02-28T16:23:41;20.70;;;8.87;;
3849;SDS011;1940;51.052;13.678;2023-02-28T16:26:06;16.80;;;8.80;;
3849;SDS011;1940;51.052;13.678;2023-02-28T16:28:36;16.37;;;8.90;;
3849;SDS011;1940;51.052;13.678;2023-02-28T16:31:04;21.23;;;8.70;;
3849;SDS011;1940;51.052;13.678;2023-02-28T16:33:32;13.10;;;7.60;;
3849;SDS011;1940;51.052;13.678;2023-02-28T16:35:57;18.07;;;8.70;;
3849;SDS011;1940;51.052;13.678;2023-02-28T16:38:23;16.17;;;9.17;;
3849;SDS011;1940;51.052;13.678;2023-02-28T16:40:49;21.13;;;8.80;;
3849;SDS011;1940;51.052;13.678;2023-02-28T16:43:17;17.03;;;8.90;;
3849;SDS011;1940;51.052;13.678;2023-02-28T16:45:46;14.33;;;8.37;;
3849;SDS011;1940;51.052;13.678;2023-02-28T16:48:12;20.07;;;9.37;;
3849;SDS011;1940;51.052;13.678;2023-02-28T16:50:40;14.60;;;8.40;;
3849;SDS011;1940;51.052;13.678;2023-02-28T16:53:06;19.57;;;8.87;;
3849;SDS011;1940;51.052;13.678;2023-02-28T16:55:31;19.23;;;9.20;;
3849;SDS011;1940;51.052;13.678;2023-02-28T16:57:58;12.70;;;7.90;;
3849;SDS011;1940;51.052;13.678;2023-02-28T17:00:25;15.77;;;8.80;;
3849;SDS011;1940;51.052;13.678;2023-02-28T17:02:52;17.90;;;9.27;;
3849;SDS011;1940;51.052;13.678;2023-02-28T17:05:18;16.27;;;8.50;;
3849;SDS011;1940;51.052;13.678;2023-02-28T17:07:44;18.73;;;9.70;;
3849;SDS011;1940;51.052;13.678;2023-02-28T17:10:15;17.87;;;9.50;;
3849;SDS011;1940;51.052;13.678;2023-02-28T17:12:44;16.73;;;9.33;;
3849;SDS011;1940;51.052;13.678;2023-02-28T17:15:11;17.37;;;9.10;;
3849;SDS011;1940;51.052;13.678;2023-02-28T17:17:38;19.47;;;9.60;;
3849;SDS011;1940;51.052;13.678;2023-02-28T17:20:06;16.97;;;9.27;;